Time;durP1;ratioP1;P1;durP2;ratioP2;P2;SDS_P1;SDS_P2;PMS_P1;PMS_P2;Temp;Humidity;BMP_temperature;BMP_pressure;BME280_temperature;BME280_humidity;BME280_pressure;Samples;Min_cycle;Max_cycle;Signal;HPM_P1;HPM_P2
2021/07/10 00:00:56;;;;;;;26.77;15.07;;;;;;;;;;5059245;28;20249;-42
2021/07/10 00:03:22;;;;;;;27.98;16.13;;;;;;;;;;5058617;28;20113;-42
2021/07/10 00:05:48;;;;;;;25.77;16.02;;;;;;;;;;5058014;28;20512;-41
2021/07/10 00:08:15;;;;;;;25.92;14.60;;;;;;;;;;5050261;28;20136;-42
2021/07/10 00:10:41;;;;;;;25.83;15.38;;;;;;;;;;5056165;28;20072;-42
2021/07/10 00:13:08;;;;;;;25.73;13.90;;;;;;;;;;5048025;28;20579;-42
2021/07/10 00:15:34;;;;;;;24.63;14.07;;;;;;;;;;5058050;28;20053;-43
2021/07/10 00:18:01;;;;;;;23.13;14.88;;;;;;;;;;5047483;28;20056;-42
2021/07/10 00:20:27;;;;;;;25.63;15.20;;;;;;;;;;5052564;28;20116;-42
2021/07/10 00:22:53;;;;;;;28.67;15.93;;;;;;;;;;5049090;28;20164;-42
2021/07/10 00:25:20;;;;;;;23.52;15.30;;;;;;;;;;5049435;28;20147;-42
2021/07/10 00:27:47;;;;;;;25.65;15.88;;;;;;;;;;5057826;28;20118;-43
2021/07/10 00:30:14;;;;;;;29.50;17.80;;;;;;;;;;5055529;28;20040;-42
2021/07/10 00:32:41;;;;;;;25.25;16.15;;;;;;;;;;5057140;28;20073;-42
2021/07/10 00:35:07;;;;;;;29.50;16.65;;;;;;;;;;5043163;28;20041;-43
2021/07/10 00:37:34;;;;;;;31.30;18.00;;;;;;;;;;5059535;28;20147;-42
2021/07/10 00:40:01;;;;;;;30.25;17.95;;;;;;;;;;5062067;28;20143;-44
2021/07/10 00:42:27;;;;;;;26.38;17.38;;;;;;;;;;5055433;28;20093;-43
2021/07/10 00:44:53;;;;;;;31.10;17.38;;;;;;;;;;5063644;28;20048;-43
2021/07/10 00:47:20;;;;;;;26.73;14.85;;;;;;;;;;5050111;28;20147;-42
2021/07/10 00:49:46;;;;;;;23.17;13.35;;;;;;;;;;5058090;28;20163;-43
2021/07/10 00:52:12;;;;;;;26.15;16.35;;;;;;;;;;5055765;28;20136;-42
2021/07/10 00:54:39;;;;;;;26.58;15.38;;;;;;;;;;5042842;28;20653;-43
2021/07/10 00:57:07;;;;;;;27.20;17.02;;;;;;;;;;5062331;28;20049;-43
2021/07/10 00:59:33;;;;;;;28.35;17.35;;;;;;;;;;5057641;28;20144;-43
2021/07/10 01:02:00;;;;;;;37.63;19.67;;;;;;;;;;5059155;28;20472;-43
2021/07/10 01:04:26;;;;;;;30.33;18.48;;;;;;;;;;5053021;28;20135;-43
2021/07/10 01:06:53;;;;;;;36.60;17.98;;;;;;;;;;5045855;28;20080;-42
2021/07/10 01:09:19;;;;;;;30.85;18.67;;;;;;;;;;5056409;28;20143;-42
2021/07/10 01:11:45;;;;;;;33.85;19.65;;;;;;;;;;5063957;28;20052;-42
2021/07/10 01:14:12;;;;;;;32.58;18.63;;;;;;;;;;5064971;28;20569;-43
2021/07/10 01:16:38;;;;;;;32.30;18.90;;;;;;;;;;5054022;28;20075;-42
2021/07/10 01:19:05;;;;;;;31.65;19.52;;;;;;;;;;5067012;28;20141;-43
2021/07/10 01:21:31;;;;;;;38.00;21.80;;;;;;;;;;5055801;28;20059;-42
2021/07/10 01:23:58;;;;;;;35.95;21.73;;;;;;;;;;5063831;28;20135;-43
2021/07/10 01:26:24;;;;;;;33.65;20.17;;;;;;;;;;5056345;28;20139;-42
2021/07/10 01:28:50;;;;;;;34.85;20.77;;;;;;;;;;5063225;28;20135;-44
2021/07/10 01:31:18;;;;;;;32.80;19.10;;;;;;;;;;5060556;28;20175;-43
2021/07/10 01:33:45;;;;;;;35.70;18.77;;;;;;;;;;5060906;28;20475;-42
2021/07/10 01:36:11;;;;;;;37.35;20.27;;;;;;;;;;5066200;28;20557;-42
2021/07/10 01:38:37;;;;;;;31.75;18.88;;;;;;;;;;5059497;28;20079;-43
2021/07/10 01:41:04;;;;;;;36.95;20.45;;;;;;;;;;5066629;28;20141;-43
2021/07/10 01:43:30;;;;;;;30.27;16.85;;;;;;;;;;5055081;28;20131;-43
2021/07/10 01:45:57;;;;;;;30.20;17.92;;;;;;;;;;5062127;28;20139;-43
2021/07/10 01:48:23;;;;;;;29.33;17.75;;;;;;;;;;5057740;28;20408;-43
2021/07/10 01:50:50;;;;;;;34.80;19.95;;;;;;;;;;5066081;28;20492;-41
2021/07/10 01:53:17;;;;;;;36.17;21.25;;;;;;;;;;5066816;28;20078;-43
2021/07/10 01:55:43;;;;;;;34.85;19.65;;;;;;;;;;5060840;28;20524;-43
2021/07/10 01:58:10;;;;;;;37.20;21.42;;;;;;;;;;5056258;28;20156;-43
2021/07/10 02:00:40;;;;;;;38.53;21.88;;;;;;;;;;5053766;28;20049;-43
2021/07/10 02:03:07;;;;;;;39.67;21.98;;;;;;;;;;5065737;28;20045;-43
2021/07/10 02:05:33;;;;;;;44.70;23.30;;;;;;;;;;5060834;28;20053;-43
2021/07/10 02:08:00;;;;;;;40.50;23.75;;;;;;;;;;5066742;28;20156;-43
2021/07/10 02:10:27;;;;;;;41.80;23.42;;;;;;;;;;5058730;28;20135;-43
2021/07/10 02:12:56;;;;;;;39.10;23.38;;;;;;;;;;5050298;28;20504;-43
2021/07/10 02:15:24;;;;;;;37.60;22.38;;;;;;;;;;5062075;28;20048;-43
2021/07/10 02:17:50;;;;;;;51.63;23.80;;;;;;;;;;5058573;28;20045;-42
2021/07/10 02:20:18;;;;;;;48.05;24.25;;;;;;;;;;5045740;28;20139;-42
2021/07/10 02:22:45;;;;;;;38.95;23.63;;;;;;;;;;5059832;28;20106;-43
2021/07/10 02:25:12;;;;;;;42.95;23.85;;;;;;;;;;5057102;28;20051;-42
2021/07/10 02:27:39;;;;;;;50.90;25.42;;;;;;;;;;5034538;28;20416;-43
2021/07/10 02:30:06;;;;;;;43.10;24.38;;;;;;;;;;5062770;28;20131;-43
2021/07/10 02:32:33;;;;;;;47.30;24.90;;;;;;;;;;5062742;28;20132;-43
2021/07/10 02:34:59;;;;;;;48.00;25.27;;;;;;;;;;5055861;28;20136;-43
2021/07/10 02:37:26;;;;;;;43.72;23.80;;;;;;;;;;5060446;28;20102;-43
2021/07/10 02:39:53;;;;;;;49.05;25.05;;;;;;;;;;5050420;28;20163;-43
2021/07/10 02:42:19;;;;;;;44.40;23.80;;;;;;;;;;5055299;28;20044;-43
2021/07/10 02:44:45;;;;;;;46.67;25.08;;;;;;;;;;5062814;28;20049;-44
2021/07/10 02:47:12;;;;;;;50.45;25.05;;;;;;;;;;5052410;28;20135;-43
2021/07/10 02:49:38;;;;;;;44.58;24.25;;;;;;;;;;5059237;28;20769;-44
2021/07/10 02:52:07;;;;;;;32.30;19.27;;;;;;;;;;5045545;28;20561;-42
2021/07/10 02:54:35;;;;;;;31.60;17.13;;;;;;;;;;5051674;28;20106;-42
2021/07/10 02:57:01;;;;;;;31.13;18.58;;;;;;;;;;5048135;28;20079;-44
2021/07/10 02:59:28;;;;;;;33.42;18.40;;;;;;;;;;5062555;28;20840;-43
2021/07/10 03:01:54;;;;;;;32.85;19.02;;;;;;;;;;5052715;28;20146;-43
2021/07/10 03:04:21;;;;;;;31.45;18.10;;;;;;;;;;5057840;28;20044;-44
2021/07/10 03:06:47;;;;;;;34.17;18.95;;;;;;;;;;5060730;28;20147;-44
2021/07/10 03:09:14;;;;;;;36.42;19.73;;;;;;;;;;5052783;28;20137;-42
2021/07/10 03:11:40;;;;;;;36.92;20.50;;;;;;;;;;5062417;28;20500;-42
2021/07/10 03:14:06;;;;;;;38.95;21.30;;;;;;;;;;5051319;28;20053;-43
2021/07/10 03:16:33;;;;;;;41.95;21.75;;;;;;;;;;5062243;28;20040;-43
2021/07/10 03:18:59;;;;;;;40.90;22.75;;;;;;;;;;5055068;28;20056;-43
2021/07/10 03:21:26;;;;;;;44.75;22.67;;;;;;;;;;5060252;28;20076;-43
2021/07/10 03:23:52;;;;;;;41.10;23.38;;;;;;;;;;5056998;28;20056;-43
2021/07/10 03:26:18;;;;;;;41.78;23.52;;;;;;;;;;5053198;28;20079;-43
2021/07/10 03:28:45;;;;;;;41.42;23.77;;;;;;;;;;5059321;28;20139;-42
2021/07/10 03:31:11;;;;;;;42.80;22.77;;;;;;;;;;5052017;28;20345;-42
2021/07/10 03:33:38;;;;;;;43.03;23.48;;;;;;;;;;5058986;28;20131;-43
2021/07/10 03:36:05;;;;;;;41.95;22.33;;;;;;;;;;5052509;28;20135;-43
2021/07/10 03:38:32;;;;;;;44.75;22.38;;;;;;;;;;5059420;28;20626;-43
2021/07/10 03:40:59;;;;;;;41.92;22.42;;;;;;;;;;5057215;28;20559;-42
2021/07/10 03:43:25;;;;;;;37.58;21.08;;;;;;;;;;5060487;28;20143;-42
2021/07/10 03:45:52;;;;;;;35.35;20.52;;;;;;;;;;5062839;28;20136;-43
2021/07/10 03:48:20;;;;;;;34.15;19.65;;;;;;;;;;5053704;28;20120;-43
2021/07/10 03:50:46;;;;;;;31.42;19.90;;;;;;;;;;5060114;28;20151;-43
2021/07/10 03:53:13;;;;;;;36.55;19.95;;;;;;;;;;5056435;28;20147;-43
2021/07/10 03:55:40;;;;;;;36.58;21.20;;;;;;;;;;5064402;28;20152;-43
2021/07/10 03:58:06;;;;;;;37.95;20.58;;;;;;;;;;5057048;28;20132;-42
2021/07/10 04:00:32;;;;;;;39.30;21.67;;;;;;;;;;5060240;28;20075;-42
2021/07/10 04:02:58;;;;;;;36.00;20.25;;;;;;;;;;5061483;28;20471;-43
2021/07/10 04:05:25;;;;;;;41.85;21.25;;;;;;;;;;5057912;28;20135;-43
2021/07/10 04:07:51;;;;;;;36.80;19.33;;;;;;;;;;5065019;28;20141;-43
2021/07/10 04:10:18;;;;;;;33.25;18.92;;;;;;;;;;5056026;28;20048;-43
2021/07/10 04:12:44;;;;;;;32.63;18.45;;;;;;;;;;5057775;28;20149;-44
2021/07/10 04:15:12;;;;;;;28.75;17.67;;;;;;;;;;5051425;28;20048;-43
2021/07/10 04:17:39;;;;;;;29.20;17.13;;;;;;;;;;5060591;28;20101;-42
2021/07/10 04:20:06;;;;;;;36.60;18.75;;;;;;;;;;5063255;28;20049;-43
2021/07/10 04:22:33;;;;;;;30.47;18.03;;;;;;;;;;5056294;28;20092;-42
2021/07/10 04:25:03;;;;;;;27.67;17.50;;;;;;;;;;5061371;28;20127;-43
2021/07/10 04:27:33;;;;;;;36.60;20.45;;;;;;;;;;5042750;28;20292;-43
2021/07/10 04:30:00;;;;;;;38.47;21.58;;;;;;;;;;5057684;28;20482;-43
2021/07/10 04:32:27;;;;;;;44.97;22.85;;;;;;;;;;5052772;28;20486;-42
2021/07/10 04:34:54;;;;;;;41.80;24.95;;;;;;;;;;5066788;28;20745;-43
2021/07/10 04:37:20;;;;;;;47.15;24.95;;;;;;;;;;5059090;28;20103;-42
2021/07/10 04:39:47;;;;;;;43.70;25.08;;;;;;;;;;5060375;28;20156;-43
2021/07/10 04:42:13;;;;;;;55.78;26.50;;;;;;;;;;5062042;28;20132;-43
2021/07/10 04:44:40;;;;;;;52.35;26.92;;;;;;;;;;5061768;28;20131;-43
2021/07/10 04:47:06;;;;;;;50.75;26.60;;;;;;;;;;5067259;28;20230;-44
2021/07/10 04:49:32;;;;;;;50.90;27.95;;;;;;;;;;5059886;28;20056;-43
2021/07/10 04:51:59;;;;;;;50.50;25.80;;;;;;;;;;5064276;28;20136;-44
2021/07/10 04:54:25;;;;;;;50.78;27.98;;;;;;;;;;5053559;28;20132;-43
2021/07/10 04:56:51;;;;;;;49.10;27.70;;;;;;;;;;5056020;28;20594;-43
2021/07/10 04:59:18;;;;;;;50.58;28.30;;;;;;;;;;5067099;28;20040;-43
2021/07/10 05:01:45;;;;;;;48.85;27.50;;;;;;;;;;5060077;28;20615;-43
2021/07/10 05:04:12;;;;;;;56.93;30.00;;;;;;;;;;5065975;28;20149;-44
2021/07/10 05:06:38;;;;;;;50.92;27.98;;;;;;;;;;5060027;28;20701;-43
2021/07/10 05:09:04;;;;;;;49.20;27.88;;;;;;;;;;5060887;28;20154;-43
2021/07/10 05:11:31;;;;;;;51.95;29.10;;;;;;;;;;5051714;28;20109;-43
2021/07/10 05:13:57;;;;;;;61.30;32.47;;;;;;;;;;5062382;28;20045;-43
2021/07/10 05:16:24;;;;;;;66.90;34.33;;;;;;;;;;5066417;28;20127;-43
2021/07/10 05:18:51;;;;;;;74.47;35.85;;;;;;;;;;5058807;28;20504;-43
2021/07/10 05:21:19;;;;;;;64.05;34.40;;;;;;;;;;5063270;28;20111;-44
2021/07/10 05:23:46;;;;;;;66.40;34.78;;;;;;;;;;5052717;28;20135;-43
2021/07/10 05:26:13;;;;;;;64.10;34.95;;;;;;;;;;5046034;28;20053;-44
2021/07/10 05:28:40;;;;;;;77.30;38.08;;;;;;;;;;5057067;28;20079;-43
2021/07/10 05:31:06;;;;;;;71.85;36.15;;;;;;;;;;5055749;28;20548;-44
2021/07/10 05:33:32;;;;;;;75.40;37.63;;;;;;;;;;5059413;28;20095;-44
2021/07/10 05:35:59;;;;;;;72.70;37.70;;;;;;;;;;5055989;28;20133;-43
2021/07/10 05:38:26;;;;;;;68.75;35.92;;;;;;;;;;5063709;28;20141;-43
2021/07/10 05:40:53;;;;;;;60.35;34.58;;;;;;;;;;5055533;28;20902;-44
2021/07/10 05:43:23;;;;;;;66.90;35.13;;;;;;;;;;5060942;28;20044;-44
2021/07/10 05:45:51;;;;;;;70.03;38.60;;;;;;;;;;5058874;28;20080;-44
2021/07/10 05:48:17;;;;;;;61.85;34.47;;;;;;;;;;5066539;28;20140;-44
2021/07/10 05:50:44;;;;;;;61.95;36.28;;;;;;;;;;5053143;28;20080;-44
2021/07/10 05:53:10;;;;;;;67.20;36.97;;;;;;;;;;5062653;28;20138;-44
2021/07/10 05:55:37;;;;;;;66.75;35.83;;;;;;;;;;5048584;28;20088;-44
2021/07/10 05:58:03;;;;;;;77.85;42.83;;;;;;;;;;5057457;28;20881;-44
2021/07/10 06:00:32;;;;;;;82.55;39.90;;;;;;;;;;5066086;28;20544;-43
2021/07/10 06:02:58;;;;;;;73.00;39.47;;;;;;;;;;5054857;28;20080;-43
2021/07/10 06:05:25;;;;;;;78.18;42.30;;;;;;;;;;5056125;28;20120;-45
2021/07/10 06:07:52;;;;;;;77.80;42.33;;;;;;;;;;5054366;28;20104;-44
2021/07/10 06:10:19;;;;;;;91.78;47.53;;;;;;;;;;5061265;28;20048;-44
2021/07/10 06:12:45;;;;;;;89.82;45.20;;;;;;;;;;5059565;28;20135;-44
2021/07/10 06:15:12;;;;;;;84.70;47.58;;;;;;;;;;5057605;28;20082;-44
2021/07/10 06:17:39;;;;;;;78.20;43.75;;;;;;;;;;5058296;28;20076;-44
2021/07/10 06:20:07;;;;;;;92.47;47.03;;;;;;;;;;5055165;28;20119;-43
2021/07/10 06:22:33;;;;;;;;;;;;;;;;;;5064757;28;20092;-44
2021/07/10 06:25:00;;;;;;;92.38;49.10;;;;;;;;;;5057900;28;19928;-43
2021/07/10 06:27:26;;;;;;;96.68;51.45;;;;;;;;;;5058372;28;20044;-43
2021/07/10 06:29:55;;;;;;;103.70;54.53;;;;;;;;;;5060543;28;20562;-43
2021/07/10 06:32:21;;;;;;;90.70;49.97;;;;;;;;;;5050193;28;20463;-43
2021/07/10 06:34:50;;;;;;;91.07;47.50;;;;;;;;;;5063134;28;20088;-43
2021/07/10 06:37:17;;;;;;;99.25;52.92;;;;;;;;;;5056080;28;20104;-43
2021/07/10 06:39:44;;;;;;;95.05;53.65;;;;;;;;;;5058371;28;20044;-43
2021/07/10 06:42:10;;;;;;;96.78;52.85;;;;;;;;;;5053650;28;20398;-43
2021/07/10 06:44:37;;;;;;;95.18;50.42;;;;;;;;;;5061743;28;20131;-43
2021/07/10 06:47:03;;;;;;;86.18;47.58;;;;;;;;;;5052911;28;20586;-43
2021/07/10 06:49:30;;;;;;;88.45;47.58;;;;;;;;;;5036747;28;20495;-43
2021/07/10 06:51:56;;;;;;;90.22;48.88;;;;;;;;;;5062118;28;20045;-43
2021/07/10 06:54:22;;;;;;;90.05;47.55;;;;;;;;;;5051883;28;20112;-43
2021/07/10 06:56:49;;;;;;;78.63;45.75;;;;;;;;;;5061212;28;20044;-45
2021/07/10 06:59:15;;;;;;;88.50;47.78;;;;;;;;;;5049635;28;20151;-44
2021/07/10 07:01:42;;;;;;;83.30;45.15;;;;;;;;;;5060339;28;20055;-44
2021/07/10 07:04:09;;;;;;;88.95;47.67;;;;;;;;;;5056032;28;20049;-42
2021/07/10 07:06:35;;;;;;;88.55;47.70;;;;;;;;;;5063166;28;20071;-45
2021/07/10 07:09:02;;;;;;;99.22;49.38;;;;;;;;;;5062280;28;20051;-44
2021/07/10 07:11:28;;;;;;;84.40;45.25;;;;;;;;;;5054569;28;20044;-43
2021/07/10 07:13:55;;;;;;;81.22;44.53;;;;;;;;;;5054634;28;20139;-43
2021/07/10 07:16:21;;;;;;;77.05;41.35;;;;;;;;;;5050259;28;20480;-43
2021/07/10 07:18:48;;;;;;;74.80;41.63;;;;;;;;;;5063744;28;20052;-45
2021/07/10 07:21:14;;;;;;;83.50;42.30;;;;;;;;;;5054174;28;20506;-44
2021/07/10 07:23:40;;;;;;;85.10;46.67;;;;;;;;;;5062388;28;20152;-44
2021/07/10 07:26:07;;;;;;;83.35;45.85;;;;;;;;;;5054683;28;20460;-44
2021/07/10 07:28:33;;;;;;;82.85;43.20;;;;;;;;;;5054628;28;20128;-44
2021/07/10 07:30:59;;;;;;;67.53;37.97;;;;;;;;;;5058312;28;20058;-44
2021/07/10 07:33:27;;;;;;;74.53;39.60;;;;;;;;;;5055947;28;20132;-42
2021/07/10 07:35:58;;;;;;;79.00;43.67;;;;;;;;;;5061614;28;20128;-43
2021/07/10 07:38:25;;;;;;;78.10;44.15;;;;;;;;;;5057813;28;20185;-43
2021/07/10 07:40:51;;;;;;;73.80;43.08;;;;;;;;;;5054903;28;20140;-43
2021/07/10 07:43:18;;;;;;;77.60;44.03;;;;;;;;;;5047600;28;20448;-44
2021/07/10 07:45:44;;;;;;;78.40;42.90;;;;;;;;;;5060071;28;20079;-44
2021/07/10 07:48:11;;;;;;;67.70;39.50;;;;;;;;;;5063850;28;20058;-44
2021/07/10 07:50:42;;;;;;;68.10;39.10;;;;;;;;;;5036042;28;20457;-44
2021/07/10 07:53:08;;;;;;;62.42;37.95;;;;;;;;;;5062435;28;20152;-42
2021/07/10 07:55:36;;;;;;;66.53;38.47;;;;;;;;;;5049089;28;20044;-44
2021/07/10 07:58:03;;;;;;;64.03;37.13;;;;;;;;;;5056783;28;20088;-43
2021/07/10 08:00:30;;;;;;;56.00;34.78;;;;;;;;;;5057710;28;20123;-46
2021/07/10 08:02:57;;;;;;;62.30;36.60;;;;;;;;;;5063368;28;20052;-44
2021/07/10 08:05:23;;;;;;;58.58;32.92;;;;;;;;;;5058154;28;20123;-43
2021/07/10 08:07:50;;;;;;;59.33;33.50;;;;;;;;;;5056087;28;20159;-43
2021/07/10 08:10:17;;;;;;;54.35;32.60;;;;;;;;;;5063411;28;20052;-43
2021/07/10 08:12:45;;;;;;;51.80;31.17;;;;;;;;;;5053130;28;20527;-44
2021/07/10 08:15:12;;;;;;;;;;;;;;;;;;5063436;28;20072;-43
2021/07/10 08:17:40;;;;;;;56.08;30.35;;;;;;;;;;5054478;28;20360;-43
2021/07/10 08:20:07;;;;;;;53.35;31.48;;;;;;;;;;5059430;28;20768;-43
2021/07/10 08:22:33;;;;;;;55.58;31.70;;;;;;;;;;5049558;28;20048;-44
2021/07/10 08:25:00;;;;;;;51.80;30.80;;;;;;;;;;5060686;28;20072;-43
2021/07/10 08:27:26;;;;;;;46.92;27.67;;;;;;;;;;5063735;28;20048;-42
2021/07/10 08:29:53;;;;;;;45.83;27.98;;;;;;;;;;5053248;28;20139;-42
2021/07/10 08:32:19;;;;;;;44.75;27.75;;;;;;;;;;5061369;28;20139;-42
2021/07/10 08:34:46;;;;;;;47.58;26.98;;;;;;;;;;5051472;28;20167;-43
2021/07/10 08:37:12;;;;;;;49.10;28.75;;;;;;;;;;5057437;28;20072;-44
2021/07/10 08:39:38;;;;;;;44.22;25.80;;;;;;;;;;5057143;28;20199;-43
2021/07/10 08:42:05;;;;;;;47.60;26.58;;;;;;;;;;5062408;28;20586;-43
2021/07/10 08:44:33;;;;;;;38.70;23.55;;;;;;;;;;5060860;28;20147;-42
2021/07/10 08:47:00;;;;;;;40.45;21.02;;;;;;;;;;5051031;28;20072;-45
2021/07/10 08:49:26;;;;;;;36.88;21.27;;;;;;;;;;5053463;28;20074;-43
2021/07/10 08:51:53;;;;;;;36.00;21.60;;;;;;;;;;5055260;28;20472;-43
2021/07/10 08:54:19;;;;;;;37.70;21.85;;;;;;;;;;5056308;28;20102;-43
2021/07/10 08:56:46;;;;;;;36.70;20.83;;;;;;;;;;5054042;28;20524;-42
2021/07/10 08:59:12;;;;;;;36.13;19.98;;;;;;;;;;5058260;28;20095;-43
2021/07/10 09:01:39;;;;;;;38.30;20.15;;;;;;;;;;5049514;28;20129;-42
2021/07/10 09:04:06;;;;;;;32.17;19.10;;;;;;;;;;5054736;28;20131;-43
2021/07/10 09:06:32;;;;;;;34.75;20.80;;;;;;;;;;5062581;28;20076;-43
2021/07/10 09:09:00;;;;;;;29.05;17.98;;;;;;;;;;5056345;28;20048;-42
2021/07/10 09:11:27;;;;;;;33.42;20.33;;;;;;;;;;5059943;28;20135;-42
2021/07/10 09:13:54;;;;;;;33.85;20.02;;;;;;;;;;5051997;28;20147;-43
2021/07/10 09:16:23;;;;;;;32.88;17.27;;;;;;;;;;5053495;28;20131;-43
2021/07/10 09:18:51;;;;;;;20.65;12.60;;;;;;;;;;5048645;28;20062;-42
2021/07/10 09:21:36;;;;;;;18.95;10.73;;;;;;;;;;5065592;28;20080;-43
2021/07/10 09:24:05;;;;;;;22.80;12.93;;;;;;;;;;5057879;28;20131;-43
2021/07/10 09:26:33;;;;;;;24.38;13.07;;;;;;;;;;5066219;28;20101;-42
2021/07/10 09:29:05;;;;;;;18.75;12.07;;;;;;;;;;5060822;28;20105;-43
2021/07/10 09:31:34;;;;;;;24.88;14.98;;;;;;;;;;5052324;28;20260;-43
2021/07/10 09:34:04;;;;;;;19.35;11.63;;;;;;;;;;5058402;28;20044;-42
2021/07/10 09:36:32;;;;;;;18.63;10.32;;;;;;;;;;5057668;28;20467;-43
2021/07/10 09:38:58;;;;;;;17.05;9.65;;;;;;;;;;5064768;28;20684;-43
2021/07/10 09:41:28;;;;;;;16.45;10.85;;;;;;;;;;5054693;28;20514;-43
2021/07/10 09:44:03;;;;;;;16.55;11.05;;;;;;;;;;5056980;28;20144;-43
2021/07/10 09:46:29;;;;;;;18.25;11.55;;;;;;;;;;5046258;28;20139;-43
2021/07/10 09:48:56;;;;;;;22.65;12.75;;;;;;;;;;5043340;28;20393;-43
2021/07/10 09:51:24;;;;;;;21.88;13.88;;;;;;;;;;5060132;28;20139;-43
2021/07/10 09:53:59;;;;;;;21.80;13.02;;;;;;;;;;5022046;28;20048;-42
2021/07/10 09:56:25;;;;;;;20.05;11.98;;;;;;;;;;5054135;28;20080;-43
2021/07/10 09:58:51;;;;;;;23.80;14.18;;;;;;;;;;5046743;28;20135;-43
2021/07/10 10:01:28;;;;;;;22.95;13.43;;;;;;;;;;5055082;28;20451;-44
2021/07/10 10:03:54;;;;;;;24.80;14.88;;;;;;;;;;5054986;28;20079;-44
2021/07/10 10:06:29;;;;;;;24.30;15.27;;;;;;;;;;5041626;28;20125;-43
2021/07/10 10:08:56;;;;;;;23.08;14.18;;;;;;;;;;5046438;28;20483;-43
2021/07/10 10:11:22;;;;;;;21.30;14.20;;;;;;;;;;5036298;28;20527;-43
2021/07/10 10:13:50;;;;;;;22.97;14.83;;;;;;;;;;5045593;28;21161;-43
2021/07/10 10:16:16;;;;;;;22.73;14.40;;;;;;;;;;5041201;28;20085;-43
2021/07/10 10:18:43;;;;;;;26.00;16.25;;;;;;;;;;5048341;28;20101;-42
2021/07/10 10:21:09;;;;;;;23.92;15.75;;;;;;;;;;5042700;28;20128;-42
2021/07/10 10:23:36;;;;;;;26.05;15.82;;;;;;;;;;5047719;28;20191;-43
2021/07/10 10:26:03;;;;;;;26.90;16.30;;;;;;;;;;5046434;28;20484;-43
2021/07/10 10:28:32;;;;;;;25.63;15.90;;;;;;;;;;5020196;28;20126;-43
2021/07/10 10:30:58;;;;;;;24.92;17.25;;;;;;;;;;5049674;28;20052;-42
2021/07/10 10:33:28;;;;;;;26.30;16.23;;;;;;;;;;5037992;28;20049;-42
2021/07/10 10:35:55;;;;;;;27.85;16.58;;;;;;;;;;5052165;28;20048;-42
2021/07/10 10:38:22;;;;;;;24.60;15.23;;;;;;;;;;5035699;28;20144;-43
2021/07/10 10:40:51;;;;;;;27.65;16.70;;;;;;;;;;5042379;28;20080;-44
2021/07/10 10:43:19;;;;;;;26.23;16.45;;;;;;;;;;5035260;28;20454;-44
2021/07/10 10:45:45;;;;;;;31.15;17.92;;;;;;;;;;5045061;28;20049;-43
2021/07/10 10:48:15;;;;;;;21.58;15.30;;;;;;;;;;5064242;28;20060;-43
2021/07/10 10:50:42;;;;;;;21.73;14.02;;;;;;;;;;5044208;28;20488;-43
2021/07/10 10:53:19;;;;;;;21.75;14.25;;;;;;;;;;5058664;28;20732;-43
2021/07/10 10:55:46;;;;;;;19.58;12.50;;;;;;;;;;5053079;28;20063;-43
2021/07/10 10:58:26;;;;;;;23.38;15.43;;;;;;;;;;5060822;28;20151;-44
2021/07/10 11:01:03;;;;;;;20.73;13.07;;;;;;;;;;5056042;28;20052;-44
2021/07/10 11:03:38;;;;;;;22.42;13.32;;;;;;;;;;5061429;28;20063;-44
2021/07/10 11:06:04;;;;;;;20.38;13.98;;;;;;;;;;5046675;28;20072;-43
2021/07/10 11:08:33;;;;;;;19.48;11.90;;;;;;;;;;5057118;28;20091;-43
2021/07/10 11:10:59;;;;;;;14.32;10.30;;;;;;;;;;5047347;28;20052;-44
2021/07/10 11:13:30;;;;;;;13.02;8.95;;;;;;;;;;5040737;28;20203;-44
2021/07/10 11:16:16;;;;;;;17.50;10.32;;;;;;;;;;5054175;28;20416;-43
2021/07/10 11:18:49;;;;;;;16.00;10.88;;;;;;;;;;5038552;28;20045;-44
2021/07/10 11:21:34;;;;;;;14.48;9.80;;;;;;;;;;5043090;28;20049;-44
2021/07/10 11:24:19;;;;;;;13.98;8.82;;;;;;;;;;5046400;28;20181;-43
2021/07/10 11:26:55;;;;;;;14.93;8.73;;;;;;;;;;5030357;28;20056;-43
2021/07/10 11:29:25;;;;;;;14.60;9.77;;;;;;;;;;5041043;28;20780;-43
2021/07/10 11:31:53;;;;;;;15.93;9.52;;;;;;;;;;5051312;28;20089;-43
2021/07/10 11:34:40;;;;;;;17.15;9.45;;;;;;;;;;5045017;28;20075;-43
2021/07/10 11:37:11;;;;;;;15.82;10.02;;;;;;;;;;5044415;28;20136;-44
2021/07/10 11:39:57;;;;;;;17.98;11.32;;;;;;;;;;5044105;28;20068;-42
2021/07/10 11:42:27;;;;;;;15.82;10.13;;;;;;;;;;5046282;28;20198;-43
2021/07/10 11:44:57;;;;;;;18.00;9.55;;;;;;;;;;5062676;28;20557;-43
2021/07/10 11:47:39;;;;;;;17.27;10.90;;;;;;;;;;5042268;28;20417;-43
2021/07/10 11:50:09;;;;;;;13.77;9.43;;;;;;;;;;5044013;28;20548;-44
2021/07/10 11:52:35;;;;;;;14.73;10.48;;;;;;;;;;5037610;28;20055;-44
2021/07/10 11:55:04;;;;;;;12.43;9.18;;;;;;;;;;5056936;28;20052;-43
2021/07/10 11:57:34;;;;;;;11.50;8.20;;;;;;;;;;5042834;28;20776;-43
2021/07/10 12:00:03;;;;;;;13.23;8.23;;;;;;;;;;5051077;28;20140;-43
2021/07/10 12:02:31;;;;;;;13.05;8.57;;;;;;;;;;5042619;28;20815;-44
2021/07/10 12:05:05;;;;;;;16.42;10.18;;;;;;;;;;5043966;28;20048;-43
2021/07/10 12:07:33;;;;;;;15.40;9.93;;;;;;;;;;5053431;28;20544;-44
2021/07/10 12:10:03;;;;;;;13.32;9.65;;;;;;;;;;5042401;28;20096;-44
2021/07/10 12:12:46;;;;;;;14.02;9.63;;;;;;;;;;5044999;28;20191;-44
2021/07/10 12:15:14;;;;;;;13.05;9.00;;;;;;;;;;5035336;28;20049;-44
2021/07/10 12:17:40;;;;;;;;;;;;;;;;;;5048234;28;20111;-46
2021/07/10 12:20:06;;;;;;;18.42;10.80;;;;;;;;;;5040348;28;20295;-45
2021/07/10 12:22:33;;;;;;;13.75;9.15;;;;;;;;;;5047699;28;20151;-44
2021/07/10 12:25:00;;;;;;;15.73;10.52;;;;;;;;;;5043841;28;20155;-44
2021/07/10 12:27:29;;;;;;;13.40;9.70;;;;;;;;;;5033558;28;20135;-44
2021/07/10 12:29:56;;;;;;;14.05;10.18;;;;;;;;;;5040081;28;20578;-43
2021/07/10 12:32:22;;;;;;;12.80;9.95;;;;;;;;;;5039018;28;20052;-44
2021/07/10 12:34:49;;;;;;;15.02;11.05;;;;;;;;;;5046960;28;20076;-43
2021/07/10 12:37:20;;;;;;;15.77;10.15;;;;;;;;;;5047926;28;20482;-45
2021/07/10 12:39:48;;;;;;;14.90;9.18;;;;;;;;;;5051027;28;20144;-48
2021/07/10 12:42:14;;;;;;;;;;;;;;;;;;5029349;28;20084;-43
2021/07/10 12:44:42;;;;;;;14.27;10.68;;;;;;;;;;5051558;28;19960;-43
2021/07/10 12:47:09;;;;;;;11.95;8.55;;;;;;;;;;5056211;28;20049;-43
2021/07/10 12:49:37;;;;;;;13.90;10.23;;;;;;;;;;5047163;28;20147;-44
2021/07/10 12:52:15;;;;;;;15.32;10.50;;;;;;;;;;5063359;28;20080;-44
2021/07/10 12:54:47;;;;;;;16.33;9.57;;;;;;;;;;5041829;28;20753;-43
2021/07/10 12:57:13;;;;;;;14.02;10.18;;;;;;;;;;5052628;28;20152;-43
2021/07/10 12:59:59;;;;;;;16.60;9.48;;;;;;;;;;5061048;28;20471;-44
2021/07/10 13:02:26;;;;;;;12.13;7.90;;;;;;;;;;5058895;28;20532;-46
2021/07/10 13:04:57;;;;;;;12.05;8.70;;;;;;;;;;5051775;28;20568;-44
2021/07/10 13:07:24;;;;;;;11.87;8.23;;;;;;;;;;5055354;28;20671;-44
2021/07/10 13:09:51;;;;;;;12.77;7.70;;;;;;;;;;5050578;28;20087;-45
2021/07/10 13:12:37;;;;;;;12.65;9.00;;;;;;;;;;5045223;28;20087;-44
2021/07/10 13:15:04;;;;;;;10.82;7.25;;;;;;;;;;5052364;28;20140;-44
2021/07/10 13:17:30;;;;;;;12.90;7.97;;;;;;;;;;5046002;28;20508;-44
2021/07/10 13:19:57;;;;;;;11.32;8.02;;;;;;;;;;5047644;28;20135;-44
2021/07/10 13:22:41;;;;;;;12.07;8.65;;;;;;;;;;5041445;28;20063;-44
2021/07/10 13:25:08;;;;;;;10.50;7.68;;;;;;;;;;5053703;28;20140;-45
2021/07/10 13:27:35;;;;;;;11.50;8.50;;;;;;;;;;5047071;28;20131;-44
2021/07/10 13:30:08;;;;;;;11.90;8.50;;;;;;;;;;5050500;28;20132;-44
2021/07/10 13:32:35;;;;;;;10.60;8.13;;;;;;;;;;5053369;28;20484;-45
2021/07/10 13:35:08;;;;;;;10.93;7.95;;;;;;;;;;5035193;28;20136;-45
2021/07/10 13:37:36;;;;;;;12.15;8.82;;;;;;;;;;5046543;28;20126;-45
2021/07/10 13:40:14;;;;;;;10.98;8.02;;;;;;;;;;5046503;28;20057;-45
2021/07/10 13:42:52;;;;;;;15.13;8.82;;;;;;;;;;5057317;28;20168;-46
2021/07/10 13:45:18;;;;;;;10.60;7.95;;;;;;;;;;5058073;28;20079;-45
2021/07/10 13:47:46;;;;;;;10.25;8.13;;;;;;;;;;5052147;28;20064;-45
2021/07/10 13:50:13;;;;;;;11.40;8.25;;;;;;;;;;5048029;28;20135;-45
2021/07/10 13:52:41;;;;;;;11.82;8.77;;;;;;;;;;5065851;28;20139;-45
2021/07/10 13:55:09;;;;;;;11.95;7.97;;;;;;;;;;5065635;28;20080;-45
2021/07/10 13:57:40;;;;;;;13.40;8.23;;;;;;;;;;5051999;28;20060;-45
2021/07/10 14:00:22;;;;;;;13.05;8.82;;;;;;;;;;5041817;28;20048;-45
2021/07/10 14:02:55;;;;;;;11.68;8.75;;;;;;;;;;5051786;28;20079;-45
2021/07/10 14:05:24;;;;;;;10.98;8.60;;;;;;;;;;5063409;28;20048;-45
2021/07/10 14:07:55;;;;;;;11.30;9.20;;;;;;;;;;5052966;28;20076;-46
2021/07/10 14:10:24;;;;;;;10.90;8.38;;;;;;;;;;5052156;28;20167;-45
2021/07/10 14:12:51;;;;;;;16.48;9.73;;;;;;;;;;5049326;28;20148;-45
2021/07/10 14:15:18;;;;;;;11.90;8.68;;;;;;;;;;5042922;28;20084;-44
2021/07/10 14:17:45;;;;;;;14.55;8.45;;;;;;;;;;5045038;28;20147;-45
2021/07/10 14:20:13;;;;;;;10.90;7.88;;;;;;;;;;5046721;28;20075;-45
2021/07/10 14:22:40;;;;;;;12.77;8.50;;;;;;;;;;5051109;28;20458;-44
2021/07/10 14:25:07;;;;;;;11.90;8.23;;;;;;;;;;5051887;28;20384;-45